sensor_id;sensor_type;location;lat;lon;timestamp;pressure;altitude;pressure_sealevel;temperature
8362;BMP180;4218;48.326;14.304;2022-12-18T00:00:58;99860.00;;;23.20
8362;BMP180;4218;48.326;14.304;2022-12-18T00:03:25;99857.00;;;23.20
8362;BMP180;4218;48.326;14.304;2022-12-18T00:05:52;99869.00;;;23.20
8362;BMP180;4218;48.326;14.304;2022-12-18T00:08:18;99863.00;;;23.20
8362;BMP180;4218;48.326;14.304;2022-12-18T00:10:45;99872.00;;;23.20
8362;BMP180;4218;48.326;14.304;2022-12-18T00:13:11;99875.00;;;23.30
8362;BMP180;4218;48.326;14.304;2022-12-18T00:15:38;99879.00;;;23.30
8362;BMP180;4218;48.326;14.304;2022-12-18T00:18:04;99875.00;;;23.30
8362;BMP180;4218;48.326;14.304;2022-12-18T00:20:30;99878.00;;;23.30
8362;BMP180;4218;48.326;14.304;2022-12-18T00:22:55;99882.00;;;23.30
8362;BMP180;4218;48.326;14.304;2022-12-18T00:25:21;99877.00;;;23.30
8362;BMP180;4218;48.326;14.304;2022-12-18T00:27:47;99872.00;;;23.30
8362;BMP180;4218;48.326;14.304;2022-12-18T00:30:12;99884.00;;;23.30
8362;BMP180;4218;48.326;14.304;2022-12-18T00:32:38;99885.00;;;23.30
8362;BMP180;4218;48.326;14.304;2022-12-18T00:35:05;99880.00;;;23.30
8362;BMP180;4218;48.326;14.304;2022-12-18T00:37:30;99889.00;;;23.30
8362;BMP180;4218;48.326;14.304;2022-12-18T00:39:56;99891.00;;;23.30
8362;BMP180;4218;48.326;14.304;2022-12-18T00:42:21;99893.00;;;23.30
8362;BMP180;4218;48.326;14.304;2022-12-18T00:45:05;99901.00;;;23.30
8362;BMP180;4218;48.326;14.304;2022-12-18T00:47:31;99894.00;;;23.30
8362;BMP180;4218;48.326;14.304;2022-12-18T00:49:56;99905.00;;;23.30
8362;BMP180;4218;48.326;14.304;2022-12-18T00:52:21;99903.00;;;23.30
8362;BMP180;4218;48.326;14.304;2022-12-18T00:54:47;99906.00;;;23.30
8362;BMP180;4218;48.326;14.304;2022-12-18T00:57:12;99918.00;;;23.30
8362;BMP180;4218;48.326;14.304;2022-12-18T00:59:37;99911.00;;;23.30
8362;BMP180;4218;48.326;14.304;2022-12-18T01:02:03;99918.00;;;23.30
8362;BMP180;4218;48.326;14.304;2022-12-18T01:04:31;99928.00;;;23.30
8362;BMP180;4218;48.326;14.304;2022-12-18T01:06:56;99927.00;;;23.30
8362;BMP180;4218;48.326;14.304;2022-12-18T01:09:22;99923.00;;;23.30
8362;BMP180;4218;48.326;14.304;2022-12-18T01:11:47;99936.00;;;23.30
8362;BMP180;4218;48.326;14.304;2022-12-18T01:14:12;99930.00;;;23.30
8362;BMP180;4218;48.326;14.304;2022-12-18T01:16:38;99935.00;;;23.30
8362;BMP180;4218;48.326;14.304;2022-12-18T01:19:03;99931.00;;;23.30
8362;BMP180;4218;48.326;14.304;2022-12-18T01:21:28;99944.00;;;23.30
8362;BMP180;4218;48.326;14.304;2022-12-18T01:23:55;99950.00;;;23.30
8362;BMP180;4218;48.326;14.304;2022-12-18T01:26:21;99950.00;;;23.30
8362;BMP180;4218;48.326;14.304;2022-12-18T01:28:46;99950.00;;;23.30
8362;BMP180;4218;48.326;14.304;2022-12-18T01:31:18;99947.00;;;23.30
8362;BMP180;4218;48.326;14.304;2022-12-18T01:33:45;99943.00;;;23.30
8362;BMP180;4218;48.326;14.304;2022-12-18T01:36:19;99946.00;;;23.30
8362;BMP180;4218;48.326;14.304;2022-12-18T01:38:45;99944.00;;;23.30
8362;BMP180;4218;48.326;14.304;2022-12-18T01:41:11;99940.00;;;23.40
8362;BMP180;4218;48.326;14.304;2022-12-18T01:43:51;99959.00;;;23.40
8362;BMP180;4218;48.326;14.304;2022-12-18T01:46:19;99954.00;;;23.40
8362;BMP180;4218;48.326;14.304;2022-12-18T01:48:47;99950.00;;;23.40
8362;BMP180;4218;48.326;14.304;2022-12-18T01:51:14;99950.00;;;23.40
8362;BMP180;4218;48.326;14.304;2022-12-18T01:53:41;99954.00;;;23.40
8362;BMP180;4218;48.326;14.304;2022-12-18T01:56:08;99947.00;;;23.40
8362;BMP180;4218;48.326;14.304;2022-12-18T01:59:00;99954.00;;;23.40
8362;BMP180;4218;48.326;14.304;2022-12-18T02:01:27;99953.00;;;23.40
8362;BMP180;4218;48.326;14.304;2022-12-18T02:03:54;99954.00;;;23.40
8362;BMP180;4218;48.326;14.304;2022-12-18T02:06:39;99951.00;;;23.40
8362;BMP180;4218;48.326;14.304;2022-12-18T02:09:11;99951.00;;;23.40
8362;BMP180;4218;48.326;14.304;2022-12-18T02:12:19;99955.00;;;23.40
8362;BMP180;4218;48.326;14.304;2022-12-18T02:14:58;99950.00;;;23.40
8362;BMP180;4218;48.326;14.304;2022-12-18T02:17:36;99949.00;;;23.40
8362;BMP180;4218;48.326;14.304;2022-12-18T02:22:53;99948.00;;;23.40
8362;BMP180;4218;48.326;14.304;2022-12-18T02:27:49;99961.00;;;23.40
8362;BMP180;4218;48.326;14.304;2022-12-18T02:30:15;99958.00;;;23.40
8362;BMP180;4218;48.326;14.304;2022-12-18T02:32:44;99954.00;;;23.40
8362;BMP180;4218;48.326;14.304;2022-12-18T02:35:16;99961.00;;;23.50
8362;BMP180;4218;48.326;14.304;2022-12-18T02:37:44;99954.00;;;23.50
8362;BMP180;4218;48.326;14.304;2022-12-18T02:40:12;99958.00;;;23.50
8362;BMP180;4218;48.326;14.304;2022-12-18T02:42:39;99952.00;;;23.50
8362;BMP180;4218;48.326;14.304;2022-12-18T02:45:04;99956.00;;;23.50
8362;BMP180;4218;48.326;14.304;2022-12-18T02:47:36;99961.00;;;23.50
8362;BMP180;4218;48.326;14.304;2022-12-18T02:50:19;99968.00;;;23.50
8362;BMP180;4218;48.326;14.304;2022-12-18T02:58:55;99967.00;;;23.50
8362;BMP180;4218;48.326;14.304;2022-12-18T03:01:30;99965.00;;;23.50
8362;BMP180;4218;48.326;14.304;2022-12-18T03:04:02;99972.00;;;23.50
8362;BMP180;4218;48.326;14.304;2022-12-18T03:06:32;99968.00;;;23.50
8362;BMP180;4218;48.326;14.304;2022-12-18T03:09:00;99965.00;;;23.50
8362;BMP180;4218;48.326;14.304;2022-12-18T03:11:31;99954.00;;;23.50
8362;BMP180;4218;48.326;14.304;2022-12-18T03:14:19;99967.00;;;23.50
8362;BMP180;4218;48.326;14.304;2022-12-18T03:16:47;99966.00;;;23.50
8362;BMP180;4218;48.326;14.304;2022-12-18T03:19:16;99967.00;;;23.50
8362;BMP180;4218;48.326;14.304;2022-12-18T03:21:54;99967.00;;;23.50
8362;BMP180;4218;48.326;14.304;2022-12-18T03:24:24;99966.00;;;23.50
8362;BMP180;4218;48.326;14.304;2022-12-18T03:26:54;99970.00;;;23.50
8362;BMP180;4218;48.326;14.304;2022-12-18T03:29:26;99966.00;;;23.50
8362;BMP180;4218;48.326;14.304;2022-12-18T03:31:56;99967.00;;;23.50
8362;BMP180;4218;48.326;14.304;2022-12-18T03:34:29;99957.00;;;23.50
8362;BMP180;4218;48.326;14.304;2022-12-18T03:36:55;99954.00;;;23.60
8362;BMP180;4218;48.326;14.304;2022-12-18T03:39:21;99963.00;;;23.50
8362;BMP180;4218;48.326;14.304;2022-12-18T03:41:51;99977.00;;;23.60
8362;BMP180;4218;48.326;14.304;2022-12-18T03:44:30;99982.00;;;23.50
8362;BMP180;4218;48.326;14.304;2022-12-18T03:47:08;99985.00;;;23.60
8362;BMP180;4218;48.326;14.304;2022-12-18T03:49:49;99983.00;;;23.60
8362;BMP180;4218;48.326;14.304;2022-12-18T03:52:26;99981.00;;;23.60
8362;BMP180;4218;48.326;14.304;2022-12-18T03:54:54;99975.00;;;23.60
8362;BMP180;4218;48.326;14.304;2022-12-18T03:57:24;99983.00;;;23.60
8362;BMP180;4218;48.326;14.304;2022-12-18T03:59:55;99986.00;;;23.60
8362;BMP180;4218;48.326;14.304;2022-12-18T04:02:23;99997.00;;;23.60
8362;BMP180;4218;48.326;14.304;2022-12-18T04:04:52;99995.00;;;23.60
8362;BMP180;4218;48.326;14.304;2022-12-18T04:07:19;99985.00;;;23.60
8362;BMP180;4218;48.326;14.304;2022-12-18T04:09:45;99992.00;;;23.60
8362;BMP180;4218;48.326;14.304;2022-12-18T04:12:11;100001.00;;;23.60
8362;BMP180;4218;48.326;14.304;2022-12-18T04:14:36;100001.00;;;23.60
8362;BMP180;4218;48.326;14.304;2022-12-18T04:17:02;100000.00;;;23.60
8362;BMP180;4218;48.326;14.304;2022-12-18T04:19:28;99998.00;;;23.60
8362;BMP180;4218;48.326;14.304;2022-12-18T04:21:53;99992.00;;;23.60
8362;BMP180;4218;48.326;14.304;2022-12-18T04:24:19;99996.00;;;23.60
8362;BMP180;4218;48.326;14.304;2022-12-18T04:26:47;100002.00;;;23.60
8362;BMP180;4218;48.326;14.304;2022-12-18T04:29:13;99993.00;;;23.60
8362;BMP180;4218;48.326;14.304;2022-12-18T04:31:38;99995.00;;;23.60
8362;BMP180;4218;48.326;14.304;2022-12-18T04:34:03;99994.00;;;23.60
8362;BMP180;4218;48.326;14.304;2022-12-18T04:36:29;99991.00;;;23.60
8362;BMP180;4218;48.326;14.304;2022-12-18T04:38:55;99988.00;;;23.70
8362;BMP180;4218;48.326;14.304;2022-12-18T04:41:20;99996.00;;;23.70
8362;BMP180;4218;48.326;14.304;2022-12-18T04:43:46;99999.00;;;23.70
8362;BMP180;4218;48.326;14.304;2022-12-18T04:46:11;100014.00;;;23.70
8362;BMP180;4218;48.326;14.304;2022-12-18T04:48:37;100014.00;;;23.70
8362;BMP180;4218;48.326;14.304;2022-12-18T04:51:03;100012.00;;;23.60
8362;BMP180;4218;48.326;14.304;2022-12-18T04:53:29;100010.00;;;23.70
8362;BMP180;4218;48.326;14.304;2022-12-18T04:56:05;100014.00;;;23.60
8362;BMP180;4218;48.326;14.304;2022-12-18T04:58:31;100015.00;;;23.60
8362;BMP180;4218;48.326;14.304;2022-12-18T05:00:56;100013.00;;;23.70
8362;BMP180;4218;48.326;14.304;2022-12-18T05:03:22;100012.00;;;23.70
8362;BMP180;4218;48.326;14.304;2022-12-18T05:05:50;100015.00;;;23.70
8362;BMP180;4218;48.326;14.304;2022-12-18T05:08:16;100001.00;;;23.70
8362;BMP180;4218;48.326;14.304;2022-12-18T05:10:42;100013.00;;;23.70
8362;BMP180;4218;48.326;14.304;2022-12-18T05:13:07;100025.00;;;23.70
8362;BMP180;4218;48.326;14.304;2022-12-18T05:15:33;100028.00;;;23.70
8362;BMP180;4218;48.326;14.304;2022-12-18T05:17:59;100019.00;;;23.70
8362;BMP180;4218;48.326;14.304;2022-12-18T05:20:25;100035.00;;;23.70
8362;BMP180;4218;48.326;14.304;2022-12-18T05:22:51;100032.00;;;23.70
8362;BMP180;4218;48.326;14.304;2022-12-18T05:25:16;100037.00;;;23.70
8362;BMP180;4218;48.326;14.304;2022-12-18T05:27:42;100033.00;;;23.70
8362;BMP180;4218;48.326;14.304;2022-12-18T05:30:08;100026.00;;;23.70
8362;BMP180;4218;48.326;14.304;2022-12-18T05:32:34;100023.00;;;23.70
8362;BMP180;4218;48.326;14.304;2022-12-18T05:34:59;100027.00;;;23.70
8362;BMP180;4218;48.326;14.304;2022-12-18T05:37:25;100024.00;;;23.70
8362;BMP180;4218;48.326;14.304;2022-12-18T05:39:50;100019.00;;;23.70
8362;BMP180;4218;48.326;14.304;2022-12-18T05:42:16;100029.00;;;23.70
8362;BMP180;4218;48.326;14.304;2022-12-18T05:44:41;100033.00;;;23.70
8362;BMP180;4218;48.326;14.304;2022-12-18T05:47:06;100033.00;;;23.70
8362;BMP180;4218;48.326;14.304;2022-12-18T05:49:32;100030.00;;;23.80
8362;BMP180;4218;48.326;14.304;2022-12-18T05:51:57;100025.00;;;23.70
8362;BMP180;4218;48.326;14.304;2022-12-18T05:54:22;100015.00;;;23.80
8362;BMP180;4218;48.326;14.304;2022-12-18T05:56:48;100035.00;;;23.80
8362;BMP180;4218;48.326;14.304;2022-12-18T05:59:13;100033.00;;;23.80
8362;BMP180;4218;48.326;14.304;2022-12-18T06:01:38;100043.00;;;23.80
8362;BMP180;4218;48.326;14.304;2022-12-18T06:04:04;100054.00;;;23.80
8362;BMP180;4218;48.326;14.304;2022-12-18T06:06:29;100052.00;;;23.80
8362;BMP180;4218;48.326;14.304;2022-12-18T06:08:56;100049.00;;;23.80
8362;BMP180;4218;48.326;14.304;2022-12-18T06:11:23;100055.00;;;23.80
8362;BMP180;4218;48.326;14.304;2022-12-18T06:13:50;100055.00;;;23.80
8362;BMP180;4218;48.326;14.304;2022-12-18T06:16:16;100054.00;;;23.80
8362;BMP180;4218;48.326;14.304;2022-12-18T06:18:42;100065.00;;;23.80
8362;BMP180;4218;48.326;14.304;2022-12-18T06:21:07;100074.00;;;23.80
8362;BMP180;4218;48.326;14.304;2022-12-18T06:23:33;100065.00;;;23.80
8362;BMP180;4218;48.326;14.304;2022-12-18T06:25:58;100059.00;;;23.80
8362;BMP180;4218;48.326;14.304;2022-12-18T06:28:23;100063.00;;;23.80
8362;BMP180;4218;48.326;14.304;2022-12-18T06:30:49;100068.00;;;23.80
8362;BMP180;4218;48.326;14.304;2022-12-18T06:33:15;100066.00;;;23.80
8362;BMP180;4218;48.326;14.304;2022-12-18T06:35:41;100073.00;;;23.80
8362;BMP180;4218;48.326;14.304;2022-12-18T06:38:06;100067.00;;;23.80
8362;BMP180;4218;48.326;14.304;2022-12-18T06:40:32;100057.00;;;23.80
8362;BMP180;4218;48.326;14.304;2022-12-18T06:42:58;100069.00;;;23.80
8362;BMP180;4218;48.326;14.304;2022-12-18T06:45:23;100068.00;;;23.80
8362;BMP180;4218;48.326;14.304;2022-12-18T06:47:49;100057.00;;;23.80
8362;BMP180;4218;48.326;14.304;2022-12-18T06:50:14;100087.00;;;23.80
8362;BMP180;4218;48.326;14.304;2022-12-18T06:52:40;100084.00;;;23.80
8362;BMP180;4218;48.326;14.304;2022-12-18T06:55:06;100087.00;;;23.80
8362;BMP180;4218;48.326;14.304;2022-12-18T06:57:35;100101.00;;;23.80
8362;BMP180;4218;48.326;14.304;2022-12-18T07:00:01;100106.00;;;23.80
8362;BMP180;4218;48.326;14.304;2022-12-18T07:02:26;100105.00;;;23.80
8362;BMP180;4218;48.326;14.304;2022-12-18T07:04:51;100114.00;;;23.80
8362;BMP180;4218;48.326;14.304;2022-12-18T07:07:17;100123.00;;;23.90
8362;BMP180;4218;48.326;14.304;2022-12-18T07:09:43;100129.00;;;23.90
8362;BMP180;4218;48.326;14.304;2022-12-18T07:12:09;100122.00;;;23.90
8362;BMP180;4218;48.326;14.304;2022-12-18T07:14:34;100131.00;;;23.90
8362;BMP180;4218;48.326;14.304;2022-12-18T07:16:59;100137.00;;;23.90
8362;BMP180;4218;48.326;14.304;2022-12-18T07:19:25;100135.00;;;23.90
8362;BMP180;4218;48.326;14.304;2022-12-18T07:21:50;100137.00;;;23.90
8362;BMP180;4218;48.326;14.304;2022-12-18T07:24:16;100133.00;;;23.90
8362;BMP180;4218;48.326;14.304;2022-12-18T07:26:41;100138.00;;;23.90
8362;BMP180;4218;48.326;14.304;2022-12-18T07:29:07;100141.00;;;23.90
8362;BMP180;4218;48.326;14.304;2022-12-18T07:31:33;100140.00;;;23.90
8362;BMP180;4218;48.326;14.304;2022-12-18T07:33:58;100142.00;;;23.90
8362;BMP180;4218;48.326;14.304;2022-12-18T07:36:23;100134.00;;;23.90
8362;BMP180;4218;48.326;14.304;2022-12-18T07:38:49;100129.00;;;23.90
8362;BMP180;4218;48.326;14.304;2022-12-18T07:41:15;100134.00;;;23.90
8362;BMP180;4218;48.326;14.304;2022-12-18T07:43:41;100129.00;;;23.90
8362;BMP180;4218;48.326;14.304;2022-12-18T07:46:07;100131.00;;;23.90
8362;BMP180;4218;48.326;14.304;2022-12-18T07:48:33;100128.00;;;23.90
8362;BMP180;4218;48.326;14.304;2022-12-18T07:51:04;100124.00;;;23.90
8362;BMP180;4218;48.326;14.304;2022-12-18T07:53:30;100143.00;;;23.90
8362;BMP180;4218;48.326;14.304;2022-12-18T07:56:00;100138.00;;;23.90
8362;BMP180;4218;48.326;14.304;2022-12-18T07:58:28;100141.00;;;23.90
8362;BMP180;4218;48.326;14.304;2022-12-18T08:01:06;100152.00;;;23.90
8362;BMP180;4218;48.326;14.304;2022-12-18T08:03:32;100140.00;;;23.90
8362;BMP180;4218;48.326;14.304;2022-12-18T08:06:01;100150.00;;;23.90
8362;BMP180;4218;48.326;14.304;2022-12-18T08:08:27;100147.00;;;23.90
8362;BMP180;4218;48.326;14.304;2022-12-18T08:10:53;100145.00;;;23.90
8362;BMP180;4218;48.326;14.304;2022-12-18T08:13:18;100141.00;;;23.90
8362;BMP180;4218;48.326;14.304;2022-12-18T08:15:44;100139.00;;;23.90
8362;BMP180;4218;48.326;14.304;2022-12-18T08:18:09;100148.00;;;23.90
8362;BMP180;4218;48.326;14.304;2022-12-18T08:20:34;100144.00;;;23.90
8362;BMP180;4218;48.326;14.304;2022-12-18T08:23:00;100147.00;;;23.90
8362;BMP180;4218;48.326;14.304;2022-12-18T08:25:25;100154.00;;;23.90
8362;BMP180;4218;48.326;14.304;2022-12-18T08:27:50;100159.00;;;23.90
8362;BMP180;4218;48.326;14.304;2022-12-18T08:30:16;100158.00;;;23.90
8362;BMP180;4218;48.326;14.304;2022-12-18T08:32:41;100161.00;;;24.00
8362;BMP180;4218;48.326;14.304;2022-12-18T08:35:07;100156.00;;;23.90
8362;BMP180;4218;48.326;14.304;2022-12-18T08:37:33;100163.00;;;23.90
8362;BMP180;4218;48.326;14.304;2022-12-18T08:39:59;100167.00;;;23.90
8362;BMP180;4218;48.326;14.304;2022-12-18T08:42:24;100169.00;;;24.00
8362;BMP180;4218;48.326;14.304;2022-12-18T08:45:08;100165.00;;;23.90
8362;BMP180;4218;48.326;14.304;2022-12-18T08:47:34;100167.00;;;23.90
8362;BMP180;4218;48.326;14.304;2022-12-18T08:49:59;100156.00;;;23.90
8362;BMP180;4218;48.326;14.304;2022-12-18T08:52:24;100171.00;;;23.90
8362;BMP180;4218;48.326;14.304;2022-12-18T08:54:50;100166.00;;;23.90
8362;BMP180;4218;48.326;14.304;2022-12-18T08:57:15;100164.00;;;23.90
8362;BMP180;4218;48.326;14.304;2022-12-18T08:59:41;100172.00;;;23.90
8362;BMP180;4218;48.326;14.304;2022-12-18T09:02:09;100171.00;;;23.90
8362;BMP180;4218;48.326;14.304;2022-12-18T09:04:34;100164.00;;;23.90
8362;BMP180;4218;48.326;14.304;2022-12-18T09:07:00;100167.00;;;23.90
8362;BMP180;4218;48.326;14.304;2022-12-18T09:09:25;100159.00;;;23.90
8362;BMP180;4218;48.326;14.304;2022-12-18T09:11:51;100156.00;;;23.90
8362;BMP180;4218;48.326;14.304;2022-12-18T09:14:16;100159.00;;;23.90
8362;BMP180;4218;48.326;14.304;2022-12-18T09:16:41;100153.00;;;23.90
8362;BMP180;4218;48.326;14.304;2022-12-18T09:19:08;100160.00;;;23.90
8362;BMP180;4218;48.326;14.304;2022-12-18T09:21:34;100159.00;;;23.90
8362;BMP180;4218;48.326;14.304;2022-12-18T09:24:04;100147.00;;;23.90
8362;BMP180;4218;48.326;14.304;2022-12-18T09:26:30;100152.00;;;23.90
8362;BMP180;4218;48.326;14.304;2022-12-18T09:28:56;100142.00;;;23.90
8362;BMP180;4218;48.326;14.304;2022-12-18T09:31:22;100144.00;;;23.90
8362;BMP180;4218;48.326;14.304;2022-12-18T09:33:48;100153.00;;;23.90
8362;BMP180;4218;48.326;14.304;2022-12-18T09:36:16;100139.00;;;23.90
8362;BMP180;4218;48.326;14.304;2022-12-18T09:38:42;100153.00;;;23.90
8362;BMP180;4218;48.326;14.304;2022-12-18T09:41:41;100146.00;;;23.90
8362;BMP180;4218;48.326;14.304;2022-12-18T09:44:18;100153.00;;;23.90
8362;BMP180;4218;48.326;14.304;2022-12-18T09:46:50;100150.00;;;24.00
8362;BMP180;4218;48.326;14.304;2022-12-18T09:49:21;100158.00;;;23.90
8362;BMP180;4218;48.326;14.304;2022-12-18T09:51:56;100153.00;;;23.90
8362;BMP180;4218;48.326;14.304;2022-12-18T09:54:26;100143.00;;;23.90
8362;BMP180;4218;48.326;14.304;2022-12-18T09:56:55;100135.00;;;23.90
8362;BMP180;4218;48.326;14.304;2022-12-18T09:59:35;100130.00;;;23.90
8362;BMP180;4218;48.326;14.304;2022-12-18T10:02:21;100138.00;;;23.90
8362;BMP180;4218;48.326;14.304;2022-12-18T10:05:13;100134.00;;;23.90
8362;BMP180;4218;48.326;14.304;2022-12-18T10:07:53;100120.00;;;23.90
8362;BMP180;4218;48.326;14.304;2022-12-18T10:10:37;100132.00;;;23.90
8362;BMP180;4218;48.326;14.304;2022-12-18T10:15:41;100130.00;;;23.90
8362;BMP180;4218;48.326;14.304;2022-12-18T10:20:49;100117.00;;;23.90
8362;BMP180;4218;48.326;14.304;2022-12-18T10:23:39;100115.00;;;23.90
8362;BMP180;4218;48.326;14.304;2022-12-18T10:26:09;100119.00;;;23.90
8362;BMP180;4218;48.326;14.304;2022-12-18T10:28:36;100110.00;;;23.90
8362;BMP180;4218;48.326;14.304;2022-12-18T10:31:07;100126.00;;;23.90
8362;BMP180;4218;48.326;14.304;2022-12-18T10:33:38;100115.00;;;23.90
8362;BMP180;4218;48.326;14.304;2022-12-18T10:36:03;100130.00;;;23.90
8362;BMP180;4218;48.326;14.304;2022-12-18T10:38:31;100120.00;;;23.90
8362;BMP180;4218;48.326;14.304;2022-12-18T10:43:34;100110.00;;;23.90
8362;BMP180;4218;48.326;14.304;2022-12-18T10:46:01;100104.00;;;23.90
8362;BMP180;4218;48.326;14.304;2022-12-18T10:48:27;100091.00;;;23.90
8362;BMP180;4218;48.326;14.304;2022-12-18T10:50:53;100089.00;;;23.90
8362;BMP180;4218;48.326;14.304;2022-12-18T10:53:23;100086.00;;;23.90
8362;BMP180;4218;48.326;14.304;2022-12-18T10:55:49;100084.00;;;23.90
8362;BMP180;4218;48.326;14.304;2022-12-18T10:58:28;100070.00;;;23.90
8362;BMP180;4218;48.326;14.304;2022-12-18T11:06:09;100067.00;;;23.90
8362;BMP180;4218;48.326;14.304;2022-12-18T11:08:35;100053.00;;;23.90
8362;BMP180;4218;48.326;14.304;2022-12-18T11:11:01;100054.00;;;23.90
8362;BMP180;4218;48.326;14.304;2022-12-18T11:13:29;100056.00;;;23.90
8362;BMP180;4218;48.326;14.304;2022-12-18T11:15:55;100056.00;;;23.90
8362;BMP180;4218;48.326;14.304;2022-12-18T11:18:28;100060.00;;;23.90
8362;BMP180;4218;48.326;14.304;2022-12-18T11:21:09;100060.00;;;23.90
8362;BMP180;4218;48.326;14.304;2022-12-18T11:23:37;100054.00;;;23.90
8362;BMP180;4218;48.326;14.304;2022-12-18T11:26:09;100052.00;;;23.90
8362;BMP180;4218;48.326;14.304;2022-12-18T11:28:40;100042.00;;;23.90
8362;BMP180;4218;48.326;14.304;2022-12-18T11:31:24;100045.00;;;23.90
8362;BMP180;4218;48.326;14.304;2022-12-18T11:34:04;100054.00;;;23.90
8362;BMP180;4218;48.326;14.304;2022-12-18T11:36:36;100043.00;;;23.90
8362;BMP180;4218;48.326;14.304;2022-12-18T11:39:12;100041.00;;;23.90
8362;BMP180;4218;48.326;14.304;2022-12-18T11:41:52;100049.00;;;23.90
8362;BMP180;4218;48.326;14.304;2022-12-18T11:44:50;100039.00;;;23.90
8362;BMP180;4218;48.326;14.304;2022-12-18T11:47:59;100037.00;;;23.90
8362;BMP180;4218;48.326;14.304;2022-12-18T11:50:31;100038.00;;;23.90
8362;BMP180;4218;48.326;14.304;2022-12-18T11:52:57;100034.00;;;23.90
8362;BMP180;4218;48.326;14.304;2022-12-18T12:01:19;100030.00;;;23.90
8362;BMP180;4218;48.326;14.304;2022-12-18T12:15:00;100003.00;;;23.90
8362;BMP180;4218;48.326;14.304;2022-12-18T12:20:45;100014.00;;;23.80
8362;BMP180;4218;48.326;14.304;2022-12-18T12:23:21;100014.00;;;23.80
8362;BMP180;4218;48.326;14.304;2022-12-18T12:26:00;99995.00;;;23.80
8362;BMP180;4218;48.326;14.304;2022-12-18T12:28:58;100000.00;;;23.80
8362;BMP180;4218;48.326;14.304;2022-12-18T12:34:15;100004.00;;;23.80
8362;BMP180;4218;48.326;14.304;2022-12-18T12:39:37;100028.00;;;23.80
8362;BMP180;4218;48.326;14.304;2022-12-18T12:42:10;100023.00;;;23.80
8362;BMP180;4218;48.326;14.304;2022-12-18T12:44:58;100032.00;;;23.80
8362;BMP180;4218;48.326;14.304;2022-12-18T12:47:30;100035.00;;;23.80
8362;BMP180;4218;48.326;14.304;2022-12-18T12:49:59;100026.00;;;23.80
8362;BMP180;4218;48.326;14.304;2022-12-18T12:52:45;100037.00;;;23.80
8362;BMP180;4218;48.326;14.304;2022-12-18T12:55:18;100027.00;;;23.80
8362;BMP180;4218;48.326;14.304;2022-12-18T12:57:51;100038.00;;;23.80
8362;BMP180;4218;48.326;14.304;2022-12-18T13:00:19;100041.00;;;23.80
8362;BMP180;4218;48.326;14.304;2022-12-18T13:02:53;100045.00;;;23.80
8362;BMP180;4218;48.326;14.304;2022-12-18T13:08:12;100051.00;;;23.80
8362;BMP180;4218;48.326;14.304;2022-12-18T13:10:46;100053.00;;;23.80
8362;BMP180;4218;48.326;14.304;2022-12-18T13:13:13;100053.00;;;23.80
8362;BMP180;4218;48.326;14.304;2022-12-18T13:15:45;100061.00;;;23.80
8362;BMP180;4218;48.326;14.304;2022-12-18T13:18:24;100065.00;;;23.80
8362;BMP180;4218;48.326;14.304;2022-12-18T13:26:35;100069.00;;;23.80
8362;BMP180;4218;48.326;14.304;2022-12-18T13:31:11;100062.00;;;23.80
8362;BMP180;4218;48.326;14.304;2022-12-18T13:36:30;100074.00;;;23.80
8362;BMP180;4218;48.326;14.304;2022-12-18T13:41:35;100082.00;;;23.80
8362;BMP180;4218;48.326;14.304;2022-12-18T13:44:40;100083.00;;;23.80
8362;BMP180;4218;48.326;14.304;2022-12-18T13:47:25;100077.00;;;23.80
8362;BMP180;4218;48.326;14.304;2022-12-18T13:49:51;100076.00;;;23.80
8362;BMP180;4218;48.326;14.304;2022-12-18T13:52:22;100073.00;;;23.80
8362;BMP180;4218;48.326;14.304;2022-12-18T13:54:57;100063.00;;;23.80
8362;BMP180;4218;48.326;14.304;2022-12-18T13:57:37;100069.00;;;23.80
8362;BMP180;4218;48.326;14.304;2022-12-18T14:02:45;100066.00;;;23.80
8362;BMP180;4218;48.326;14.304;2022-12-18T14:07:47;100062.00;;;23.80
8362;BMP180;4218;48.326;14.304;2022-12-18T14:10:15;100067.00;;;23.80
8362;BMP180;4218;48.326;14.304;2022-12-18T14:12:45;100052.00;;;23.80
8362;BMP180;4218;48.326;14.304;2022-12-18T14:18:22;100070.00;;;23.80
8362;BMP180;4218;48.326;14.304;2022-12-18T14:20:48;100060.00;;;23.80
8362;BMP180;4218;48.326;14.304;2022-12-18T14:23:37;100064.00;;;23.80
8362;BMP180;4218;48.326;14.304;2022-12-18T14:26:23;100069.00;;;23.80
8362;BMP180;4218;48.326;14.304;2022-12-18T14:28:50;100075.00;;;23.80
8362;BMP180;4218;48.326;14.304;2022-12-18T14:31:23;100077.00;;;23.80
8362;BMP180;4218;48.326;14.304;2022-12-18T14:33:49;100086.00;;;23.80
8362;BMP180;4218;48.326;14.304;2022-12-18T14:36:20;100092.00;;;23.80
8362;BMP180;4218;48.326;14.304;2022-12-18T14:38:50;100091.00;;;23.80
8362;BMP180;4218;48.326;14.304;2022-12-18T14:41:18;100088.00;;;23.80
8362;BMP180;4218;48.326;14.304;2022-12-18T14:43:46;100092.00;;;23.80
8362;BMP180;4218;48.326;14.304;2022-12-18T14:46:35;100098.00;;;23.80
8362;BMP180;4218;48.326;14.304;2022-12-18T14:51:55;100111.00;;;23.80
8362;BMP180;4218;48.326;14.304;2022-12-18T14:54:22;100109.00;;;23.80
8362;BMP180;4218;48.326;14.304;2022-12-18T14:57:37;100114.00;;;23.80
8362;BMP180;4218;48.326;14.304;2022-12-18T14:59:38;100114.00;;;23.80
8362;BMP180;4218;48.326;14.304;2022-12-18T15:02:22;100115.00;;;23.80
8362;BMP180;4218;48.326;14.304;2022-12-18T15:05:00;100112.00;;;23.80
8362;BMP180;4218;48.326;14.304;2022-12-18T15:07:26;100111.00;;;23.80
8362;BMP180;4218;48.326;14.304;2022-12-18T15:12:46;100113.00;;;23.80
8362;BMP180;4218;48.326;14.304;2022-12-18T15:25:55;100128.00;;;23.80
8362;BMP180;4218;48.326;14.304;2022-12-18T15:28:24;100130.00;;;23.80
8362;BMP180;4218;48.326;14.304;2022-12-18T15:33:37;100136.00;;;23.80
8362;BMP180;4218;48.326;14.304;2022-12-18T15:36:07;100144.00;;;23.80
8362;BMP180;4218;48.326;14.304;2022-12-18T15:38:33;100142.00;;;23.80
8362;BMP180;4218;48.326;14.304;2022-12-18T15:41:01;100137.00;;;23.80
8362;BMP180;4218;48.326;14.304;2022-12-18T15:43:27;100136.00;;;23.80
8362;BMP180;4218;48.326;14.304;2022-12-18T15:46:08;100142.00;;;23.80
8362;BMP180;4218;48.326;14.304;2022-12-18T15:48:36;100135.00;;;23.80
8362;BMP180;4218;48.326;14.304;2022-12-18T15:51:05;100132.00;;;23.80
8362;BMP180;4218;48.326;14.304;2022-12-18T15:53:35;100127.00;;;23.90
8362;BMP180;4218;48.326;14.304;2022-12-18T15:56:00;100117.00;;;23.80
8362;BMP180;4218;48.326;14.304;2022-12-18T15:58:44;100117.00;;;23.80